Annis, ID

5:40 PM MST on January 25, 2015 (GMT -0700)
APRSWXNET Rigby ID US | Change Station
CLOSE
Current Station
Personal Weather Station
Location: Ucon, ID
Elevation: 4819 ft
Nearby Weather Stations

Elev 4819 ft 43.64 °N, 111.96 °W | Updated 41 minutes ago

Overcast
Overcast
32 °F
Feels Like 32 °F
N
0
Wind Variable Wind from NNW
Gusts 0.0 mph

Today
High -- | Low -- °F
--% Chance of Precip.
Yesterday
High -- | Low -- °F
Precip. -- in
7:51 AM 5:28 PM
Waxing Crescent, 37% visible
Pressure 30.55 in
Visibility 7.0 miles
Clouds Few 1200 ft
Overcast 2300 ft
Windchill 32 °F
Dew Point 31 °F
Humidity 96%
Rainfall 0.00 in
Snow Depth Not available.
UV 0 out of 12
Pollen .10 out of 12
Air Quality Not available.
Flu Activity Not available.
METAR KRXE 252353Z AUTO 06004KT 7SM FEW012 OVC023 M01/M01 A3044 RMK AO2 SLP343 I6001 T10061011 11006 21022 51004

More Conditions Fewer Conditions

Pressure 30.55 in
Visibility 7.0 miles
Clouds Few 1200 ft
Overcast 2300 ft
Windchill 32 °F
Dew Point 31 °F
Humidity 96%
Rainfall 0.00 in
Snow Depth Not available.
UV 0 out of 12
Pollen .10 out of 12
Air Quality Not available.
Flu Activity Not available.
METAR KRXE 252353Z AUTO 06004KT 7SM FEW012 OVC023 M01/M01 A3044 RMK AO2 SLP343 I6001 T10061011 11006 21022 51004

More Conditions Fewer Conditions

10-Day Weather Forecast

Almanac

Astronomy

Jan. 25, 2015 Rise Set
Actual Time
Civil Twilight
Nautical Twilight
Astronomical Twilight
Moon
Length of Visible Light
Length of Day
Tomorrow will be .
, % of the Moon is Illuminated

Today's Extremes

State Highs State Lows

Community

WunderPhotos

Upload Photos

1,790,027 photos uploaded!

WunderBlogs® & News

Nearby

Air Quality

  Air Quality AQ Index Pollutant
Not available.

Snow Depth

Station Depth Elevation

Earthquake Activity

City Distance Mag. Time & Date
Minimum magnitude displayed is 2.5.

Coastal Water Temperatures

Place Temperature

Nearby Weather Stations